KDPA/DPA METAR and TAF weather

Enter ICAO airport designator
Station Type Date Time Source
KDPA METAR 2020/01/18 21:52 UTC NOAA

KDPA 182152Z 26026G46KT 4SM -SN OVC015 M07/M11 A2984 RMK AO2 PK WND 26046/2150 UPB35E42SNB42 PRESRR SLP114 P0000 T10721111


Station Type Date Time Source
KDPA Decoded METAR 2020/01/18 21:52 UTC NOAA

CHICAGO/WEST CH DUPAGE, IL, United States (KDPA) 41-54N 88-15W 230M
Jan 18, 2020 - 04:52 PM EST / 2020.01.18 2152 UTC
Wind: from the W (260 degrees) at 30 MPH (26 KT) gusting to 53 MPH (46 KT):0
Visibility: 4 mile(s):0
Sky conditions: overcast
Weather: light snow
Precipitation last hour: A trace
Temperature: 19.0 F (-7.2 C)
Windchill: 0 F (-18 C):1
Dew Point: 12.0 F (-11.1 C)
Relative Humidity: 73%
Pressure (altimeter): 29.84 in. Hg (1010 hPa)
Pressure tendency: rising rapidly
ob: KDPA 182152Z 26026G46KT 4SM -SN OVC015 M07/M11 A2984 RMK AO2 PK WND 26046/2150 UPB35E42SNB42 PRESRR SLP114 P0000 T10721111
cycle: 22

Station Type Date Time Source
KDPA TAF 2020/01/18 20:12 UTC NOAA

TAF
AMD KDPA 182009Z 1820/1918 27022G33KT P6SM BKN017 OVC025
TEMPO 1820/1824 29025G40KT 3SM -SHSN BKN008
FM190600 28020G30KT P6SM SCT025 BKN035
FM191300 29016G23KT P6SM SCT020 BKN030

Example: see airport list